createdAt,value
2022-09-26T00:01:48.429Z,99.90
2022-09-26T00:04:23.264Z,99.90
2022-09-26T00:06:52.278Z,99.90
2022-09-26T00:09:19.987Z,99.90
2022-09-26T00:11:47.406Z,99.90
2022-09-26T00:14:17.324Z,99.90
2022-09-26T00:16:44.663Z,99.90
2022-09-26T00:19:12.234Z,99.90
2022-09-26T00:21:39.677Z,99.90
2022-09-26T00:24:07.028Z,99.90
2022-09-26T00:26:35.261Z,99.90
2022-09-26T00:29:07.144Z,99.90
2022-09-26T00:31:36.870Z,99.90
2022-09-26T00:34:04.196Z,99.90
2022-09-26T00:36:38.147Z,99.90
2022-09-26T00:39:09.487Z,99.90
2022-09-26T00:41:38.183Z,99.90
2022-09-26T00:44:37.442Z,99.90
2022-09-26T00:47:05.206Z,99.90
2022-09-26T00:49:36.521Z,99.90
2022-09-26T00:52:06.845Z,99.90
2022-09-26T00:54:34.808Z,99.90
2022-09-26T00:57:05.475Z,99.90
2022-09-26T00:59:34.354Z,99.90
2022-09-26T01:02:02.205Z,99.90
2022-09-26T01:04:30.083Z,99.90
2022-09-26T01:06:58.500Z,99.90
2022-09-26T01:09:26.378Z,99.90
2022-09-26T01:11:53.764Z,99.90
2022-09-26T01:14:21.623Z,99.90
2022-09-26T01:16:51.139Z,99.90
2022-09-26T01:19:51.002Z,99.90
2022-09-26T01:22:55.209Z,99.90
2022-09-26T01:25:44.314Z,99.90
2022-09-26T01:28:26.603Z,99.90
2022-09-26T01:31:08.758Z,99.90
2022-09-26T01:33:40.053Z,99.90
2022-09-26T01:36:10.395Z,99.90
2022-09-26T01:38:49.862Z,99.90
2022-09-26T01:41:38.422Z,99.90
2022-09-26T01:44:38.952Z,99.90
2022-09-26T01:47:17.094Z,99.90
2022-09-26T01:49:54.903Z,99.90
2022-09-26T01:52:38.703Z,99.90
2022-09-26T01:55:12.591Z,99.90
2022-09-26T01:58:12.508Z,99.90
2022-09-26T02:00:41.379Z,99.90
2022-09-26T02:03:13.914Z,99.90
2022-09-26T02:05:52.440Z,99.90
2022-09-26T02:08:28.009Z,99.90
2022-09-26T02:11:02.213Z,99.90
2022-09-26T02:13:44.295Z,99.90
2022-09-26T02:16:21.488Z,99.90
2022-09-26T02:18:52.152Z,99.90
2022-09-26T02:21:21.338Z,99.90
2022-09-26T02:23:49.076Z,99.90
2022-09-26T02:26:16.421Z,99.90
2022-09-26T02:28:43.757Z,99.90
2022-09-26T02:31:16.523Z,99.90
2022-09-26T02:33:45.590Z,99.90
2022-09-26T02:36:14.198Z,99.90
2022-09-26T02:38:41.655Z,99.90
2022-09-26T02:41:47.502Z,99.90
2022-09-26T02:44:24.316Z,99.90
2022-09-26T02:46:53.271Z,99.90
2022-09-26T02:49:39.419Z,99.90
2022-09-26T02:52:27.135Z,99.90
2022-09-26T02:55:06.339Z,99.90
2022-09-26T02:57:40.041Z,99.90
2022-09-26T03:00:19.865Z,99.90
2022-09-26T03:03:08.004Z,99.90
2022-09-26T03:05:35.528Z,99.90
2022-09-26T03:08:05.874Z,99.90
2022-09-26T03:10:33.192Z,99.90
2022-09-26T03:13:08.592Z,99.90
2022-09-26T03:15:37.149Z,99.90
2022-09-26T03:18:06.633Z,99.90
2022-09-26T03:20:36.131Z,99.90
2022-09-26T03:23:03.905Z,99.90
2022-09-26T03:25:32.101Z,99.90
2022-09-26T03:28:04.775Z,99.90
2022-09-26T03:30:32.209Z,99.90
2022-09-26T03:33:17.983Z,99.90
2022-09-26T03:35:45.421Z,99.90
2022-09-26T03:38:14.501Z,99.90
2022-09-26T03:40:48.578Z,99.90
2022-09-26T03:43:34.802Z,99.90
2022-09-26T03:46:06.878Z,99.90
2022-09-26T03:48:35.287Z,99.90
2022-09-26T03:51:13.364Z,99.90
2022-09-26T03:53:42.141Z,99.90
2022-09-26T03:56:14.820Z,99.90
2022-09-26T03:58:42.473Z,99.90
2022-09-26T04:01:11.849Z,99.90
2022-09-26T04:03:42.388Z,99.90
2022-09-26T04:06:12.847Z,99.90
2022-09-26T04:08:41.736Z,99.90
2022-09-26T04:11:12.288Z,99.90
2022-09-26T04:13:51.452Z,99.90
2022-09-26T04:16:23.141Z,99.90
2022-09-26T04:18:57.355Z,99.90
2022-09-26T04:21:27.181Z,99.90
2022-09-26T04:23:55.209Z,99.90
2022-09-26T04:26:24.361Z,99.90
2022-09-26T04:28:54.972Z,99.90
2022-09-26T04:31:24.888Z,99.90
2022-09-26T04:33:58.580Z,99.90
2022-09-26T04:36:25.866Z,99.90
2022-09-26T04:38:53.229Z,99.90
2022-09-26T04:41:21.768Z,99.90
2022-09-26T04:43:50.004Z,99.90
2022-09-26T04:46:28.284Z,99.90
2022-09-26T04:48:58.708Z,99.90
2022-09-26T04:51:27.510Z,99.90
2022-09-26T04:53:54.947Z,99.90
2022-09-26T04:56:30.999Z,99.90
2022-09-26T04:58:59.459Z,99.90
2022-09-26T05:01:34.142Z,99.90
2022-09-26T05:04:10.867Z,99.90
2022-09-26T05:06:39.498Z,99.90
2022-09-26T05:09:10.627Z,99.90
2022-09-26T05:12:07.195Z,99.90
2022-09-26T05:14:36.243Z,99.90
2022-09-26T05:17:04.818Z,99.90
2022-09-26T05:19:32.886Z,99.90
2022-09-26T05:22:20.530Z,99.90
2022-09-26T05:25:06.755Z,99.90
2022-09-26T05:27:34.232Z,99.90
2022-09-26T05:30:01.589Z,99.90
2022-09-26T05:32:29.319Z,99.90
2022-09-26T05:34:57.496Z,99.90
2022-09-26T05:37:26.649Z,99.90
2022-09-26T05:40:12.698Z,99.90
2022-09-26T05:42:45.836Z,99.90
2022-09-26T05:45:15.050Z,99.90
2022-09-26T05:47:43.030Z,99.90
2022-09-26T05:50:10.887Z,99.90
2022-09-26T05:52:39.830Z,99.90
2022-09-26T05:55:11.887Z,99.90
2022-09-26T05:57:58.513Z,99.90
2022-09-26T06:00:33.921Z,99.90
2022-09-26T06:03:03.653Z,99.90
2022-09-26T06:05:47.427Z,99.90
2022-09-26T06:08:17.323Z,99.90
2022-09-26T06:11:06.226Z,99.90
2022-09-26T06:13:33.869Z,99.90
2022-09-26T06:16:10.979Z,99.90
2022-09-26T06:18:38.739Z,99.90
2022-09-26T06:21:09.465Z,99.90
2022-09-26T06:23:36.883Z,99.90
2022-09-26T06:26:08.421Z,99.90
2022-09-26T06:28:36.222Z,99.90
2022-09-26T06:31:11.133Z,99.90
2022-09-26T06:33:58.666Z,99.90
2022-09-26T06:36:36.441Z,99.90
2022-09-26T06:39:03.869Z,99.90
2022-09-26T06:41:35.426Z,99.90
2022-09-26T06:44:12.793Z,99.90
2022-09-26T06:47:05.554Z,99.90
2022-09-26T06:49:38.521Z,99.90
2022-09-26T06:52:21.020Z,99.90
2022-09-26T06:54:48.910Z,99.90
2022-09-26T06:57:16.197Z,99.90
2022-09-26T06:59:43.555Z,99.90
2022-09-26T07:02:26.431Z,99.90
2022-09-26T07:05:14.520Z,99.90
2022-09-26T07:07:51.180Z,99.90
2022-09-26T07:10:25.051Z,99.90
2022-09-26T07:13:05.931Z,99.90
2022-09-26T07:15:34.066Z,99.90
2022-09-26T07:18:06.466Z,99.90
2022-09-26T07:21:00.063Z,99.90
2022-09-26T07:23:57.900Z,99.90
2022-09-26T07:26:25.375Z,99.90
2022-09-26T07:28:54.939Z,99.90
2022-09-26T07:31:24.244Z,99.90
2022-09-26T07:34:08.464Z,99.90
2022-09-26T07:36:39.648Z,99.90
2022-09-26T07:39:07.925Z,99.90
2022-09-26T07:41:35.277Z,99.90
2022-09-26T07:47:09.368Z,99.90
2022-09-26T07:49:55.058Z,99.90
2022-09-26T07:52:46.727Z,99.90
2022-09-26T07:55:21.900Z,99.90
2022-09-26T07:58:09.592Z,99.90
2022-09-26T08:00:53.334Z,99.90
2022-09-26T08:03:49.576Z,99.90
2022-09-26T08:06:25.380Z,99.90
2022-09-26T08:08:53.922Z,99.90
2022-09-26T08:11:40.268Z,99.90
2022-09-26T08:14:33.410Z,99.90
2022-09-26T08:17:14.372Z,99.90
2022-09-26T08:19:42.224Z,99.90
2022-09-26T08:22:10.114Z,99.90
2022-09-26T08:24:38.901Z,99.90
2022-09-26T08:27:23.167Z,99.90
2022-09-26T08:29:51.550Z,99.90
2022-09-26T08:32:19.557Z,99.90
2022-09-26T08:34:47.587Z,99.90
2022-09-26T08:37:31.020Z,99.90
2022-09-26T08:40:26.657Z,99.90
2022-09-26T08:43:07.104Z,99.90
2022-09-26T08:46:12.943Z,99.90
2022-09-26T08:49:15.962Z,99.90
2022-09-26T08:51:46.149Z,99.90
2022-09-26T08:54:19.092Z,99.90
2022-09-26T08:56:52.896Z,99.90
2022-09-26T08:59:25.592Z,99.90
2022-09-26T09:01:54.373Z,99.90
2022-09-26T09:04:36.623Z,99.90
2022-09-26T09:07:24.366Z,99.90
2022-09-26T09:09:53.984Z,99.90
2022-09-26T09:13:18.196Z,99.90
2022-09-26T09:16:18.871Z,99.90
2022-09-26T09:19:37.726Z,99.90
2022-09-26T09:22:23.643Z,99.90
2022-09-26T09:25:20.545Z,99.90
2022-09-26T09:28:09.905Z,99.90
2022-09-26T09:30:48.173Z,99.90
2022-09-26T09:33:48.435Z,99.90
2022-09-26T09:36:46.460Z,99.90
2022-09-26T09:39:19.602Z,99.90
2022-09-26T09:42:10.784Z,99.90
2022-09-26T09:45:14.720Z,99.90
2022-09-26T09:47:42.068Z,99.90
2022-09-26T09:50:32.212Z,99.90
2022-09-26T09:53:25.524Z,99.90
2022-09-26T09:56:08.270Z,99.90
2022-09-26T09:58:35.608Z,99.90
2022-09-26T10:01:30.947Z,99.90
2022-09-26T10:04:11.488Z,99.90
2022-09-26T10:06:45.861Z,99.90
2022-09-26T10:09:35.727Z,99.90
2022-09-26T10:12:43.582Z,99.90
2022-09-26T10:15:29.582Z,99.90
2022-09-26T10:18:24.658Z,99.90
2022-09-26T10:21:16.348Z,99.90
2022-09-26T10:23:46.905Z,99.90
2022-09-26T10:26:40.265Z,99.90
2022-09-26T10:29:35.094Z,99.90
2022-09-26T10:32:02.788Z,99.90
2022-09-26T10:34:35.469Z,99.90
2022-09-26T10:37:22.052Z,99.90
2022-09-26T10:40:14.696Z,99.90
2022-09-26T10:42:43.212Z,99.90
2022-09-26T10:45:16.016Z,99.90
2022-09-26T10:48:12.479Z,99.90
2022-09-26T10:51:05.575Z,99.90
2022-09-26T10:53:44.892Z,99.90
2022-09-26T10:56:14.990Z,99.90
2022-09-26T10:58:43.294Z,99.90
2022-09-26T11:01:21.044Z,99.90
2022-09-26T11:03:48.883Z,99.90
2022-09-26T11:06:40.566Z,99.90
2022-09-26T11:09:23.824Z,99.90
2022-09-26T11:12:29.131Z,99.90
2022-09-26T11:15:12.450Z,99.90
2022-09-26T11:17:55.693Z,99.90
2022-09-26T11:20:50.630Z,99.90
2022-09-26T11:23:56.135Z,99.90
2022-09-26T11:26:29.771Z,99.90
2022-09-26T11:29:09.459Z,99.90
2022-09-26T11:31:51.673Z,99.90
2022-09-26T11:34:43.442Z,99.90
2022-09-26T11:38:05.476Z,99.90
2022-09-26T11:41:00.954Z,99.90
2022-09-26T11:43:51.697Z,99.90
2022-09-26T11:46:48.456Z,99.90
2022-09-26T11:49:45.288Z,99.90
2022-09-26T11:52:36.888Z,99.90
2022-09-26T11:55:34.640Z,99.90
2022-09-26T11:58:39.930Z,99.90
2022-09-26T12:01:31.391Z,99.90
2022-09-26T12:04:01.981Z,99.90
2022-09-26T12:07:05.379Z,99.90
2022-09-26T12:09:47.304Z,99.90
2022-09-26T12:12:17.364Z,99.90
2022-09-26T12:15:08.991Z,99.90
2022-09-26T12:17:59.428Z,99.90
2022-09-26T12:20:32.574Z,99.90
2022-09-26T12:23:21.728Z,99.90
2022-09-26T12:26:09.749Z,99.90
2022-09-26T12:28:41.110Z,99.90
2022-09-26T12:31:31.893Z,99.90
2022-09-26T12:34:23.711Z,99.90
2022-09-26T12:37:01.885Z,99.90
2022-09-26T12:39:35.150Z,99.90
2022-09-26T12:42:17.599Z,99.90
2022-09-26T12:44:57.642Z,99.90
2022-09-26T12:48:06.142Z,99.90
2022-09-26T12:50:55.059Z,99.90
2022-09-26T12:53:30.151Z,99.90
2022-09-26T12:56:00.775Z,99.90
2022-09-26T12:58:43.677Z,99.90
2022-09-26T13:01:12.001Z,99.90
2022-09-26T13:03:45.581Z,99.90
2022-09-26T13:06:29.399Z,99.90
2022-09-26T13:09:09.874Z,99.90
2022-09-26T13:12:11.887Z,99.90
2022-09-26T13:15:06.356Z,99.90
2022-09-26T13:17:41.655Z,99.90
2022-09-26T13:20:32.406Z,99.90
2022-09-26T13:23:06.628Z,99.90
2022-09-26T13:25:49.697Z,99.90
2022-09-26T13:28:28.883Z,99.90
2022-09-26T13:31:33.714Z,99.90
2022-09-26T13:34:37.587Z,99.70
2022-09-26T13:37:05.182Z,99.60
2022-09-26T13:39:50.767Z,99.90
2022-09-26T13:42:44.246Z,99.90
2022-09-26T13:45:40.418Z,99.90
2022-09-26T13:48:32.842Z,99.60
2022-09-26T13:51:28.806Z,99.60
2022-09-26T13:54:44.194Z,99.60
2022-09-26T13:57:35.208Z,99.30
2022-09-26T14:00:30.156Z,99.10
2022-09-26T14:03:19.243Z,98.70
2022-09-26T14:05:49.897Z,97.70
2022-09-26T14:08:50.544Z,98.10
2022-09-26T14:11:35.244Z,97.10
2022-09-26T14:14:18.210Z,96.70
2022-09-26T14:16:49.215Z,95.70
2022-09-26T14:19:42.083Z,94.60
2022-09-26T14:22:18.947Z,94.30
2022-09-26T14:24:49.742Z,94.40
2022-09-26T14:27:40.835Z,94.00
2022-09-26T14:30:24.354Z,94.10
2022-09-26T14:32:52.063Z,94.00
2022-09-26T14:35:24.404Z,94.30
2022-09-26T14:37:51.720Z,93.90
2022-09-26T14:40:19.094Z,93.50
2022-09-26T14:42:46.370Z,92.50
2022-09-26T14:45:16.696Z,92.50
2022-09-26T14:47:55.071Z,92.50
2022-09-26T14:50:35.429Z,92.20
2022-09-26T14:53:45.195Z,92.00
2022-09-26T14:56:27.327Z,91.60
2022-09-26T14:58:55.054Z,91.40
2022-09-26T15:01:24.410Z,91.10
2022-09-26T15:03:55.540Z,91.30
2022-09-26T15:06:23.723Z,91.10
2022-09-26T15:08:51.091Z,90.80
2022-09-26T15:11:26.478Z,90.20
2022-09-26T15:13:55.285Z,88.40
2022-09-26T15:16:50.592Z,88.20
2022-09-26T15:19:36.344Z,88.70
2022-09-26T15:22:06.570Z,88.90
2022-09-26T15:24:35.861Z,89.00
2022-09-26T15:27:15.088Z,86.70
2022-09-26T15:29:48.560Z,87.40
2022-09-26T15:32:20.224Z,88.90
2022-09-26T15:34:47.641Z,88.60
2022-09-26T15:37:23.508Z,88.30
2022-09-26T15:39:51.126Z,87.70
2022-09-26T15:42:39.935Z,87.60
2022-09-26T15:45:30.114Z,88.50
2022-09-26T15:47:59.128Z,88.30
2022-09-26T15:50:40.346Z,87.70
2022-09-26T15:53:42.921Z,88.10
2022-09-26T15:56:43.213Z,87.80
2022-09-26T15:59:10.514Z,88.40
2022-09-26T16:01:44.797Z,87.70
2022-09-26T16:04:22.386Z,88.40
2022-09-26T16:06:57.182Z,88.90
2022-09-26T16:09:32.821Z,89.70
2022-09-26T16:12:16.153Z,89.20
2022-09-26T16:15:05.976Z,89.80
2022-09-26T16:17:36.707Z,90.10
2022-09-26T16:20:13.126Z,90.60
2022-09-26T16:22:44.744Z,90.70
2022-09-26T16:25:24.193Z,91.10
2022-09-26T16:27:58.329Z,91.40
2022-09-26T16:30:25.721Z,91.20
2022-09-26T16:33:16.123Z,91.20
2022-09-26T16:35:47.289Z,91.70
2022-09-26T16:38:25.686Z,92.10
2022-09-26T16:40:58.209Z,92.20
2022-09-26T16:43:31.578Z,92.40
2022-09-26T16:46:09.233Z,92.30
2022-09-26T16:48:52.005Z,92.50
2022-09-26T16:51:21.182Z,92.50
2022-09-26T16:54:17.176Z,92.80
2022-09-26T16:56:44.680Z,92.90
2022-09-26T16:59:32.471Z,93.30
2022-09-26T17:02:00.627Z,93.60
2022-09-26T17:04:32.770Z,93.90
2022-09-26T17:07:01.055Z,94.10
2022-09-26T17:09:32.415Z,94.50
2022-09-26T17:12:04.562Z,95.10
2022-09-26T17:14:40.256Z,95.50
2022-09-26T17:17:16.237Z,95.20
2022-09-26T17:19:45.353Z,95.30
2022-09-26T17:22:14.580Z,95.60
2022-09-26T17:24:42.850Z,95.80
2022-09-26T17:27:36.044Z,95.80
2022-09-26T17:30:04.679Z,95.70
2022-09-26T17:32:38.673Z,95.50
2022-09-26T17:35:19.079Z,95.40
2022-09-26T17:37:46.430Z,95.40
2022-09-26T17:40:17.365Z,95.60
2022-09-26T17:42:46.969Z,95.30
2022-09-26T17:45:14.485Z,95.20
2022-09-26T17:47:41.848Z,93.90
2022-09-26T17:50:12.005Z,94.00
2022-09-26T17:52:39.343Z,93.90
2022-09-26T17:55:07.387Z,94.00
2022-09-26T17:57:39.567Z,94.20
2022-09-26T18:00:11.410Z,94.50
2022-09-26T18:03:00.383Z,94.40
2022-09-26T18:05:29.174Z,94.00
2022-09-26T18:08:01.352Z,93.80
2022-09-26T18:10:30.485Z,93.70
2022-09-26T18:13:02.803Z,93.80
2022-09-26T18:15:30.325Z,93.80
2022-09-26T18:17:58.911Z,94.00
2022-09-26T18:20:38.566Z,94.20
2022-09-26T18:23:06.911Z,93.90
2022-09-26T18:25:34.372Z,94.00
2022-09-26T18:28:04.755Z,94.30
2022-09-26T18:30:32.121Z,94.50
2022-09-26T18:32:59.492Z,94.50
2022-09-26T18:35:27.764Z,94.70
2022-09-26T18:37:55.846Z,94.60
2022-09-26T18:40:23.903Z,94.50
2022-09-26T18:42:51.607Z,94.80
2022-09-26T18:45:29.510Z,94.90
2022-09-26T18:47:57.032Z,95.20
2022-09-26T18:50:26.882Z,95.30
2022-09-26T18:52:54.260Z,95.30
2022-09-26T18:55:41.843Z,95.20
2022-09-26T18:58:24.464Z,95.20
2022-09-26T19:00:56.591Z,95.20
2022-09-26T19:03:24.537Z,95.30
2022-09-26T19:06:16.226Z,94.90
2022-09-26T19:08:45.060Z,94.90
2022-09-26T19:11:14.747Z,95.00
2022-09-26T19:13:49.094Z,95.00
2022-09-26T19:16:16.614Z,94.90
2022-09-26T19:18:44.030Z,95.00
2022-09-26T19:21:33.272Z,95.00
2022-09-26T19:24:04.953Z,95.10
2022-09-26T19:26:36.480Z,95.10
2022-09-26T19:29:07.781Z,94.90
2022-09-26T19:31:38.787Z,95.00
2022-09-26T19:34:06.183Z,94.80
2022-09-26T19:36:33.489Z,95.10
2022-09-26T19:39:00.810Z,95.50
2022-09-26T19:41:28.148Z,95.90
2022-09-26T19:43:55.597Z,95.90
2022-09-26T19:46:25.516Z,95.90
2022-09-26T19:48:52.915Z,96.00
2022-09-26T19:51:20.279Z,96.00
2022-09-26T19:53:47.685Z,96.00
2022-09-26T19:56:15.013Z,96.20
2022-09-26T19:58:42.929Z,96.20
2022-09-26T20:01:18.390Z,96.40
2022-09-26T20:03:45.864Z,96.60
2022-09-26T20:06:24.427Z,96.40
2022-09-26T20:08:55.391Z,96.00
2022-09-26T20:11:25.593Z,95.70
2022-09-26T20:14:11.633Z,95.80
2022-09-26T20:16:43.134Z,96.10
2022-09-26T20:19:15.543Z,96.00
2022-09-26T20:21:42.956Z,96.20
2022-09-26T20:24:13.261Z,96.20
2022-09-26T20:26:40.963Z,96.20
2022-09-26T20:29:14.873Z,96.20
2022-09-26T20:31:43.603Z,96.50
2022-09-26T20:34:12.148Z,96.40
2022-09-26T20:36:42.131Z,96.40
2022-09-26T20:39:14.787Z,96.80
2022-09-26T20:41:42.217Z,96.90
2022-09-26T20:44:15.585Z,96.80
2022-09-26T20:46:50.628Z,96.80
2022-09-26T20:49:20.386Z,96.90
2022-09-26T20:51:48.131Z,97.00
2022-09-26T20:54:42.031Z,96.90
2022-09-26T20:57:09.463Z,97.10
2022-09-26T20:59:36.839Z,97.20
2022-09-26T21:02:24.304Z,97.30
2022-09-26T21:04:51.820Z,97.40
2022-09-26T21:07:19.209Z,97.30
2022-09-26T21:09:46.564Z,97.50
2022-09-26T21:12:14.963Z,97.60
2022-09-26T21:14:42.378Z,97.50
2022-09-26T21:17:29.262Z,97.70
2022-09-26T21:19:56.657Z,97.90
2022-09-26T21:22:46.907Z,97.90
2022-09-26T21:25:18.741Z,98.20
2022-09-26T21:27:47.107Z,98.00
2022-09-26T21:30:15.516Z,98.40
2022-09-26T21:32:44.850Z,97.90
2022-09-26T21:35:13.972Z,98.30
2022-09-26T21:37:42.672Z,98.60
2022-09-26T21:40:10.202Z,98.50
2022-09-26T21:42:37.643Z,98.90
2022-09-26T21:45:07.181Z,99.30
2022-09-26T21:47:36.591Z,99.40
2022-09-26T21:50:05.710Z,99.40
2022-09-26T21:52:40.648Z,99.50
2022-09-26T21:55:10.671Z,99.60
2022-09-26T21:57:41.767Z,99.30
2022-09-26T22:00:11.093Z,99.30
2022-09-26T22:02:41.783Z,99.20
2022-09-26T22:05:09.927Z,99.40
2022-09-26T22:07:37.530Z,99.20
2022-09-26T22:10:05.603Z,99.20
2022-09-26T22:12:33.003Z,99.20
2022-09-26T22:15:00.547Z,99.20
2022-09-26T22:17:27.896Z,99.10
2022-09-26T22:19:55.254Z,99.20
2022-09-26T22:22:22.610Z,99.50
2022-09-26T22:24:50.067Z,99.10
2022-09-26T22:27:17.438Z,99.10
2022-09-26T22:29:44.736Z,99.20
2022-09-26T22:32:12.938Z,99.50
2022-09-26T22:34:40.235Z,99.30
2022-09-26T22:37:07.624Z,99.30
2022-09-26T22:39:34.936Z,99.20
2022-09-26T22:42:02.299Z,99.00
2022-09-26T22:44:29.610Z,98.80
2022-09-26T22:46:56.944Z,98.70
2022-09-26T22:49:24.270Z,98.70
2022-09-26T22:51:51.631Z,98.80
2022-09-26T22:54:19.545Z,98.90
2022-09-26T22:56:46.886Z,98.70
2022-09-26T22:59:14.237Z,98.80
2022-09-26T23:01:41.652Z,98.80
2022-09-26T23:04:09.273Z,98.80
2022-09-26T23:06:36.627Z,99.00
2022-09-26T23:09:04.164Z,99.00
2022-09-26T23:11:31.700Z,99.10
2022-09-26T23:13:59.089Z,99.10
2022-09-26T23:16:28.075Z,98.90
2022-09-26T23:18:55.601Z,99.10
2022-09-26T23:21:24.489Z,99.40
2022-09-26T23:23:54.868Z,99.50
2022-09-26T23:26:26.657Z,99.50
2022-09-26T23:28:54.769Z,99.70
2022-09-26T23:31:22.963Z,99.70
2022-09-26T23:33:50.511Z,99.70
2022-09-26T23:36:18.158Z,99.90
2022-09-26T23:38:45.616Z,99.90
2022-09-26T23:41:13.055Z,99.70
2022-09-26T23:43:40.450Z,99.70
2022-09-26T23:46:08.146Z,99.90
2022-09-26T23:48:35.700Z,99.90
2022-09-26T23:51:03.204Z,99.90
2022-09-26T23:53:30.709Z,99.90
2022-09-26T23:56:05.179Z,99.90
2022-09-26T23:58:32.615Z,99.90
